• Join FlightAware (Why Join?)
  • Login
  • US Flag GB Flag 
04:32 EDT


 

Airport Tracker/Info


-or-


 

Live Flight TrackerFlight Track Log ✈ SKW4664 ✈ 28-Jul-2013 ✈ KFSD - KMSP

Flight Track Log - Related Links

Times and Time Zones

All times are in EDT time to prevent confusion due to time zone crossing. See the SKW4664 flight status page for this flight to view local times or setup timezone preferences in your user account.

Time Position Orientation Groundspeed Altitude Reporting Facility
EDT Latitude Longitude Course Direction KTS MPH feet Rate Location/Type
12:08 43.6458 -96.7069 43° Northeast 176 203 4,400  Level Minneapolis Center
12:09 43.6933 -96.6139 55° Northeast 221 254 7,200 2,520 Climbing Minneapolis Center
12:10 43.8416 -96.2544 53° Northeast  Level FlightAware Approximate
12:10 43.7394 -96.5264 54° Northeast 255 293 9,700  Level Minneapolis Center
12:11 43.9086 -96.1314 53° Northeast  Level FlightAware Approximate
12:11 43.7878 -96.4361 53° Northeast 276 318 12,100  Level Minneapolis Center
12:12 43.9766 -96.0091 52° Northeast  Level FlightAware Approximate
12:12 43.8392 -96.3386 54° Northeast 294 338 13,300  Level Minneapolis Center
12:13 43.8958 -96.2322 54° Northeast 337 388 15,100 1,860 Climbing Minneapolis Center
12:14 43.9642 -96.1044 53° Northeast 348 400 17,200 1,620 Climbing Minneapolis Center
12:15 44.0200 -95.9956 54° Northeast 351 404 18,500 1,200 Climbing Minneapolis Center
12:16 44.0786 -95.8844 54° Northeast 361 415 19,800 1,200 Climbing Minneapolis Center
12:17 44.1378 -95.7708 54° Northeast 368 423 21,000 1,020 Climbing Minneapolis Center
12:18 44.2108 -95.6300 54° Northeast 375 432 22,000 480 Climbing Minneapolis Center
12:19 44.2761 -95.5044 54° Northeast 393 452 22,000  Level Minneapolis Center
12:20 44.3442 -95.3722 54° Northeast 415 478 22,000  Level Minneapolis Center
12:21 44.4078 -95.2456 55° Northeast 402 463 22,000 -660 Level Minneapolis Center
12:22 44.4678 -95.1239 55° Northeast 386 444 20,700 -1,380 Descending Minneapolis Center
12:23 44.5006 -94.9844 72° East 378 435 19,200 -1,620 Descending Minneapolis Center
12:25 44.5478 -94.7933 71° East 373 429 17,100 -1,620 Descending Minneapolis Center
12:26 44.5786 -94.6581 72° East 367 422 15,600 -1,500 Descending Minneapolis Center
12:27 44.6119 -94.5119 72° East 363 418 14,000 -1,500 Descending Minneapolis Center
12:28 44.6425 -94.3819 72° East 349 402 12,500 -1,440 Descending Minneapolis Center
12:29 44.6703 -94.2569 73° East 336 387 11,100 -780 Descending Minneapolis Center
12:30 44.6989 -94.1344 72° East 331 381 11,000 -60 Descending Minneapolis Center
12:31 44.7258 -94.0119 73° East 330 380 11,000  Level Minneapolis Center
12:32 44.7528 -93.8892 73° East 329 379 11,000  Level Minneapolis Center
12:33 44.7853 -93.7453 72° East 322 371 11,000 -540 Level Minneapolis Center
12:34 44.8094 -93.6353 73° East 294 338 9,900 -1,260 Descending Minneapolis Center
12:35 44.8331 -93.5289 73° East 283 326 8,500 -960 Descending Minneapolis Center
12:36 44.8542 -93.4314 73° East 262 302 8,000 -240 Descending Minneapolis Center
12:37 44.8375 -93.3422 105° East 243 280 8,000 -540 Level Minneapolis Center
12:38 44.7675 -93.3289 172° South 257 296 6,800 -1,380 Descending Minneapolis Center
12:39 44.6783 -93.2953 165° South 252 290 5,200 -1,140 Descending Minneapolis Center
12:40 44.6767 -93.2186 92° East 201 231 4,500 -540 Descending Minneapolis Center
12:42 44.7186 -93.1975 20° North 177 204 4,100 -600 Descending Minneapolis Center
12:43 44.7636 -93.2100 349° North 142 163 3,300 -840 Descending Minneapolis Center
12:44 44.8006 -93.2194 350° North 139 160 2,400 -840 Descending Minneapolis Center
12:45 44.8378 -93.2292 350° North 137 158 1,600 -780 Descending Minneapolis Center